sensor_id;sensor_type;location;lat;lon;timestamp;pressure;altitude;pressure_sealevel;temperature;humidity
3668;BME280;24099;47.102;15.440;2022-09-12T00:00:50;97165.06;;;11.56;100.00
3668;BME280;24099;47.102;15.440;2022-09-12T00:03:18;97167.25;;;11.74;100.00
3668;BME280;24099;47.102;15.440;2022-09-12T00:05:47;97163.56;;;11.90;100.00
3668;BME280;24099;47.102;15.440;2022-09-12T00:08:14;97159.81;;;11.99;100.00
3668;BME280;24099;47.102;15.440;2022-09-12T00:10:43;97161.78;;;11.76;100.00
3668;BME280;24099;47.102;15.440;2022-09-12T00:13:11;97156.41;;;11.84;100.00
3668;BME280;24099;47.102;15.440;2022-09-12T00:15:39;97165.28;;;12.04;100.00
3668;BME280;24099;47.102;15.440;2022-09-12T00:18:11;97158.34;;;11.96;100.00
3668;BME280;24099;47.102;15.440;2022-09-12T00:20:41;97157.00;;;12.07;100.00
3668;BME280;24099;47.102;15.440;2022-09-12T00:23:10;97153.56;;;11.85;100.00
3668;BME280;24099;47.102;15.440;2022-09-12T00:25:41;97148.47;;;11.62;100.00
3668;BME280;24099;47.102;15.440;2022-09-12T00:28:09;97152.00;;;11.48;100.00
3668;BME280;24099;47.102;15.440;2022-09-12T00:30:40;97146.34;;;11.51;100.00
3668;BME280;24099;47.102;15.440;2022-09-12T00:33:09;97153.19;;;11.67;100.00
3668;BME280;24099;47.102;15.440;2022-09-12T00:35:42;97147.06;;;11.38;100.00
3668;BME280;24099;47.102;15.440;2022-09-12T00:38:12;97149.53;;;11.25;100.00
3668;BME280;24099;47.102;15.440;2022-09-12T00:40:41;97155.25;;;11.29;100.00
3668;BME280;24099;47.102;15.440;2022-09-12T00:43:13;97149.81;;;11.52;100.00
3668;BME280;24099;47.102;15.440;2022-09-12T00:45:41;97154.56;;;11.42;100.00
3668;BME280;24099;47.102;15.440;2022-09-12T00:48:21;97168.38;;;11.44;100.00
3668;BME280;24099;47.102;15.440;2022-09-12T00:50:53;97147.22;;;11.37;100.00
3668;BME280;24099;47.102;15.440;2022-09-12T00:53:22;97161.25;;;11.23;100.00
3668;BME280;24099;47.102;15.440;2022-09-12T00:55:51;97155.13;;;11.37;100.00
3668;BME280;24099;47.102;15.440;2022-09-12T00:58:23;97151.50;;;11.38;100.00
3668;BME280;24099;47.102;15.440;2022-09-12T01:00:54;97141.38;;;11.42;100.00
3668;BME280;24099;47.102;15.440;2022-09-12T01:03:23;97146.97;;;11.32;100.00
3668;BME280;24099;47.102;15.440;2022-09-12T01:06:03;97151.59;;;11.30;100.00
3668;BME280;24099;47.102;15.440;2022-09-12T01:08:35;97145.91;;;11.48;100.00
3668;BME280;24099;47.102;15.440;2022-09-12T01:11:04;97141.50;;;11.12;100.00
3668;BME280;24099;47.102;15.440;2022-09-12T01:13:34;97137.50;;;11.37;100.00
3668;BME280;24099;47.102;15.440;2022-09-12T01:16:04;97140.53;;;11.20;100.00
3668;BME280;24099;47.102;15.440;2022-09-12T01:18:54;97130.59;;;11.15;100.00
3668;BME280;24099;47.102;15.440;2022-09-12T01:21:35;97129.53;;;11.31;100.00
3668;BME280;24099;47.102;15.440;2022-09-12T01:24:36;97130.97;;;11.33;100.00
3668;BME280;24099;47.102;15.440;2022-09-12T01:27:26;97120.91;;;11.22;100.00
3668;BME280;24099;47.102;15.440;2022-09-12T01:30:38;97138.50;;;11.36;100.00
3668;BME280;24099;47.102;15.440;2022-09-12T01:33:39;97128.28;;;11.48;100.00
3668;BME280;24099;47.102;15.440;2022-09-12T01:36:33;97120.63;;;11.53;100.00
3668;BME280;24099;47.102;15.440;2022-09-12T01:39:07;97121.00;;;11.50;100.00
3668;BME280;24099;47.102;15.440;2022-09-12T01:41:49;97123.81;;;11.49;100.00
3668;BME280;24099;47.102;15.440;2022-09-12T01:44:30;97127.53;;;11.54;100.00
3668;BME280;24099;47.102;15.440;2022-09-12T01:47:08;97132.81;;;11.54;100.00
3668;BME280;24099;47.102;15.440;2022-09-12T01:49:42;97127.06;;;11.29;100.00
3668;BME280;24099;47.102;15.440;2022-09-12T01:52:17;97135.47;;;11.39;100.00
3668;BME280;24099;47.102;15.440;2022-09-12T01:54:52;97128.91;;;11.50;100.00
3668;BME280;24099;47.102;15.440;2022-09-12T01:57:27;97134.19;;;11.50;100.00
3668;BME280;24099;47.102;15.440;2022-09-12T02:00:00;97130.16;;;11.33;100.00
3668;BME280;24099;47.102;15.440;2022-09-12T02:02:44;97134.06;;;11.37;100.00
3668;BME280;24099;47.102;15.440;2022-09-12T02:05:22;97129.41;;;11.18;100.00
3668;BME280;24099;47.102;15.440;2022-09-12T02:07:56;97121.69;;;11.16;100.00
3668;BME280;24099;47.102;15.440;2022-09-12T02:10:31;97134.13;;;11.08;100.00
3668;BME280;24099;47.102;15.440;2022-09-12T02:13:05;97126.56;;;11.19;100.00
3668;BME280;24099;47.102;15.440;2022-09-12T02:15:41;97119.84;;;10.95;100.00
3668;BME280;24099;47.102;15.440;2022-09-12T02:18:15;97113.97;;;11.15;100.00
3668;BME280;24099;47.102;15.440;2022-09-12T02:20:46;97122.69;;;11.00;100.00
3668;BME280;24099;47.102;15.440;2022-09-12T02:23:18;97115.94;;;10.91;100.00
3668;BME280;24099;47.102;15.440;2022-09-12T02:25:52;97108.88;;;10.77;100.00
3668;BME280;24099;47.102;15.440;2022-09-12T02:28:25;97115.28;;;10.89;100.00
3668;BME280;24099;47.102;15.440;2022-09-12T02:31:00;97111.94;;;10.95;100.00
3668;BME280;24099;47.102;15.440;2022-09-12T02:33:43;97112.13;;;10.79;100.00
3668;BME280;24099;47.102;15.440;2022-09-12T02:36:19;97112.06;;;10.73;100.00
3668;BME280;24099;47.102;15.440;2022-09-12T02:38:53;97107.84;;;10.93;100.00
3668;BME280;24099;47.102;15.440;2022-09-12T02:41:21;97101.50;;;10.87;100.00
3668;BME280;24099;47.102;15.440;2022-09-12T02:43:50;97107.91;;;10.49;100.00
3668;BME280;24099;47.102;15.440;2022-09-12T02:46:22;97116.16;;;10.60;100.00
3668;BME280;24099;47.102;15.440;2022-09-12T02:48:53;97105.16;;;10.72;100.00
3668;BME280;24099;47.102;15.440;2022-09-12T02:51:21;97104.63;;;10.76;100.00
3668;BME280;24099;47.102;15.440;2022-09-12T02:53:49;97100.00;;;10.78;100.00
3668;BME280;24099;47.102;15.440;2022-09-12T02:56:22;97101.50;;;10.87;100.00
3668;BME280;24099;47.102;15.440;2022-09-12T02:58:51;97109.13;;;10.82;100.00
3668;BME280;24099;47.102;15.440;2022-09-12T03:01:29;97098.44;;;11.05;100.00
3668;BME280;24099;47.102;15.440;2022-09-12T03:04:26;97095.19;;;11.03;100.00
3668;BME280;24099;47.102;15.440;2022-09-12T03:07:08;97093.91;;;11.14;100.00
3668;BME280;24099;47.102;15.440;2022-09-12T03:09:45;97093.53;;;11.17;100.00
3668;BME280;24099;47.102;15.440;2022-09-12T03:12:39;97096.97;;;11.17;100.00
3668;BME280;24099;47.102;15.440;2022-09-12T03:15:27;97096.34;;;11.15;100.00
3668;BME280;24099;47.102;15.440;2022-09-12T03:18:11;97091.25;;;11.14;100.00
3668;BME280;24099;47.102;15.440;2022-09-12T03:20:54;97098.16;;;11.15;100.00
3668;BME280;24099;47.102;15.440;2022-09-12T03:23:32;97098.66;;;11.25;100.00
3668;BME280;24099;47.102;15.440;2022-09-12T03:26:05;97098.91;;;11.30;100.00
3668;BME280;24099;47.102;15.440;2022-09-12T03:28:38;97094.91;;;11.34;100.00
3668;BME280;24099;47.102;15.440;2022-09-12T03:31:14;97095.13;;;11.39;100.00
3668;BME280;24099;47.102;15.440;2022-09-12T03:33:42;97091.56;;;11.47;100.00
3668;BME280;24099;47.102;15.440;2022-09-12T03:36:17;97098.16;;;11.57;100.00
3668;BME280;24099;47.102;15.440;2022-09-12T03:38:46;97092.63;;;11.52;100.00
3668;BME280;24099;47.102;15.440;2022-09-12T03:41:13;97095.53;;;11.57;100.00
3668;BME280;24099;47.102;15.440;2022-09-12T03:43:42;97097.38;;;11.63;100.00
3668;BME280;24099;47.102;15.440;2022-09-12T03:46:10;97095.75;;;11.62;100.00
3668;BME280;24099;47.102;15.440;2022-09-12T03:48:38;97096.38;;;11.64;100.00
3668;BME280;24099;47.102;15.440;2022-09-12T03:51:08;97093.56;;;11.66;100.00
3668;BME280;24099;47.102;15.440;2022-09-12T03:53:37;97096.13;;;11.59;100.00
3668;BME280;24099;47.102;15.440;2022-09-12T03:56:06;97095.53;;;11.57;100.00
3668;BME280;24099;47.102;15.440;2022-09-12T03:58:34;97090.72;;;11.67;100.00
3668;BME280;24099;47.102;15.440;2022-09-12T04:01:07;97100.84;;;11.64;100.00
3668;BME280;24099;47.102;15.440;2022-09-12T04:03:38;97104.09;;;11.66;100.00
3668;BME280;24099;47.102;15.440;2022-09-12T04:06:08;97108.50;;;11.59;100.00
3668;BME280;24099;47.102;15.440;2022-09-12T04:08:38;97107.38;;;11.68;100.00
3668;BME280;24099;47.102;15.440;2022-09-12T04:11:07;97104.09;;;11.66;100.00
3668;BME280;24099;47.102;15.440;2022-09-12T04:13:38;97101.47;;;11.66;100.00
3668;BME280;24099;47.102;15.440;2022-09-12T04:16:06;97106.16;;;11.70;100.00
3668;BME280;24099;47.102;15.440;2022-09-12T04:18:34;97104.03;;;11.81;100.00
3668;BME280;24099;47.102;15.440;2022-09-12T04:21:04;97106.53;;;11.67;100.00
3668;BME280;24099;47.102;15.440;2022-09-12T04:23:32;97104.97;;;11.73;100.00
3668;BME280;24099;47.102;15.440;2022-09-12T04:26:03;97106.69;;;11.81;100.00
3668;BME280;24099;47.102;15.440;2022-09-12T04:28:33;97116.91;;;11.90;100.00
3668;BME280;24099;47.102;15.440;2022-09-12T04:31:02;97103.47;;;11.85;100.00
3668;BME280;24099;47.102;15.440;2022-09-12T04:33:30;97105.44;;;11.77;100.00
3668;BME280;24099;47.102;15.440;2022-09-12T04:36:03;97105.47;;;11.83;100.00
3668;BME280;24099;47.102;15.440;2022-09-12T04:38:32;97105.91;;;11.87;100.00
3668;BME280;24099;47.102;15.440;2022-09-12T04:41:10;97108.56;;;11.87;100.00
3668;BME280;24099;47.102;15.440;2022-09-12T04:43:38;97108.56;;;11.87;100.00
3668;BME280;24099;47.102;15.440;2022-09-12T04:46:06;97105.66;;;11.82;100.00
3668;BME280;24099;47.102;15.440;2022-09-12T04:48:33;97117.47;;;11.86;100.00
3668;BME280;24099;47.102;15.440;2022-09-12T04:51:09;97107.75;;;11.86;100.00
3668;BME280;24099;47.102;15.440;2022-09-12T04:53:37;97109.06;;;11.76;100.00
3668;BME280;24099;47.102;15.440;2022-09-12T04:56:08;97104.81;;;11.53;100.00
3668;BME280;24099;47.102;15.440;2022-09-12T04:58:36;97106.09;;;11.64;100.00
3668;BME280;24099;47.102;15.440;2022-09-12T05:01:06;97115.19;;;11.76;100.00
3668;BME280;24099;47.102;15.440;2022-09-12T05:03:34;97122.56;;;11.87;100.00
3668;BME280;24099;47.102;15.440;2022-09-12T05:06:06;97115.59;;;11.80;100.00
3668;BME280;24099;47.102;15.440;2022-09-12T05:08:34;97113.25;;;11.70;100.00
3668;BME280;24099;47.102;15.440;2022-09-12T05:11:02;97124.94;;;11.82;100.00
3668;BME280;24099;47.102;15.440;2022-09-12T05:13:33;97120.88;;;11.80;100.00
3668;BME280;24099;47.102;15.440;2022-09-12T05:16:03;97121.69;;;11.80;100.00
3668;BME280;24099;47.102;15.440;2022-09-12T05:18:32;97128.91;;;11.71;100.00
3668;BME280;24099;47.102;15.440;2022-09-12T05:21:01;97137.31;;;11.82;100.00
3668;BME280;24099;47.102;15.440;2022-09-12T05:23:30;97137.13;;;11.83;100.00
3668;BME280;24099;47.102;15.440;2022-09-12T05:25:58;97139.19;;;11.66;100.00
3668;BME280;24099;47.102;15.440;2022-09-12T05:28:30;97134.97;;;11.72;100.00
3668;BME280;24099;47.102;15.440;2022-09-12T05:31:05;97144.34;;;11.53;100.00
3668;BME280;24099;47.102;15.440;2022-09-12T05:33:34;97153.00;;;11.68;100.00
3668;BME280;24099;47.102;15.440;2022-09-12T05:36:04;97144.91;;;11.70;100.00
3668;BME280;24099;47.102;15.440;2022-09-12T05:38:34;97141.06;;;11.72;100.00
3668;BME280;24099;47.102;15.440;2022-09-12T05:41:06;97155.16;;;11.58;100.00
3668;BME280;24099;47.102;15.440;2022-09-12T05:43:36;97153.25;;;11.52;100.00
3668;BME280;24099;47.102;15.440;2022-09-12T05:46:09;97155.88;;;11.52;100.00
3668;BME280;24099;47.102;15.440;2022-09-12T05:48:39;97152.25;;;11.53;100.00
3668;BME280;24099;47.102;15.440;2022-09-12T05:51:09;97146.97;;;11.53;100.00
3668;BME280;24099;47.102;15.440;2022-09-12T05:53:39;97149.66;;;11.60;100.00
3668;BME280;24099;47.102;15.440;2022-09-12T05:56:09;97148.09;;;11.65;100.00
3668;BME280;24099;47.102;15.440;2022-09-12T05:58:39;97155.38;;;11.63;100.00
3668;BME280;24099;47.102;15.440;2022-09-12T06:01:11;97154.38;;;11.64;100.00
3668;BME280;24099;47.102;15.440;2022-09-12T06:03:41;97155.81;;;11.67;100.00
3668;BME280;24099;47.102;15.440;2022-09-12T06:06:10;97153.75;;;11.62;100.00
3668;BME280;24099;47.102;15.440;2022-09-12T06:08:39;97151.28;;;11.61;100.00
3668;BME280;24099;47.102;15.440;2022-09-12T06:11:09;97147.63;;;11.77;100.00
3668;BME280;24099;47.102;15.440;2022-09-12T06:13:38;97147.16;;;11.73;100.00
3668;BME280;24099;47.102;15.440;2022-09-12T06:16:09;97154.59;;;11.84;100.00
3668;BME280;24099;47.102;15.440;2022-09-12T06:18:38;97150.31;;;11.83;100.00
3668;BME280;24099;47.102;15.440;2022-09-12T06:21:08;97152.56;;;11.86;100.00
3668;BME280;24099;47.102;15.440;2022-09-12T06:23:37;97157.59;;;11.81;100.00
3668;BME280;24099;47.102;15.440;2022-09-12T06:26:08;97150.31;;;11.83;100.00
3668;BME280;24099;47.102;15.440;2022-09-12T06:28:38;97160.56;;;11.93;100.00
3668;BME280;24099;47.102;15.440;2022-09-12T06:31:10;97161.84;;;12.03;100.00
3668;BME280;24099;47.102;15.440;2022-09-12T06:33:40;97160.91;;;12.11;100.00
3668;BME280;24099;47.102;15.440;2022-09-12T06:36:11;97156.28;;;12.20;100.00
3668;BME280;24099;47.102;15.440;2022-09-12T06:38:39;97163.03;;;12.29;100.00
3668;BME280;24099;47.102;15.440;2022-09-12T06:41:09;97162.09;;;12.36;100.00
3668;BME280;24099;47.102;15.440;2022-09-12T06:43:38;97154.25;;;12.50;100.00
3668;BME280;24099;47.102;15.440;2022-09-12T06:46:06;97153.88;;;12.59;100.00
3668;BME280;24099;47.102;15.440;2022-09-12T06:48:35;97136.06;;;12.68;100.00
3668;BME280;24099;47.102;15.440;2022-09-12T06:51:04;97146.53;;;12.89;100.00
3668;BME280;24099;47.102;15.440;2022-09-12T06:53:33;97136.63;;;13.04;100.00
3668;BME280;24099;47.102;15.440;2022-09-12T06:56:04;97134.34;;;13.49;100.00
3668;BME280;24099;47.102;15.440;2022-09-12T06:58:33;97133.31;;;13.63;100.00
3668;BME280;24099;47.102;15.440;2022-09-12T07:01:02;97139.47;;;13.90;100.00
3668;BME280;24099;47.102;15.440;2022-09-12T07:03:31;97136.19;;;14.08;100.00
3668;BME280;24099;47.102;15.440;2022-09-12T07:06:03;97130.06;;;14.34;100.00
3668;BME280;24099;47.102;15.440;2022-09-12T07:08:32;97149.56;;;14.66;100.00
3668;BME280;24099;47.102;15.440;2022-09-12T07:11:07;97154.66;;;14.67;100.00
3668;BME280;24099;47.102;15.440;2022-09-12T07:13:35;97146.88;;;14.79;100.00
3668;BME280;24099;47.102;15.440;2022-09-12T07:16:03;97148.06;;;14.96;100.00
3668;BME280;24099;47.102;15.440;2022-09-12T07:18:30;97147.25;;;14.96;100.00
3668;BME280;24099;47.102;15.440;2022-09-12T07:20:59;97148.69;;;14.92;100.00
3668;BME280;24099;47.102;15.440;2022-09-12T07:23:30;97142.50;;;15.11;100.00
3668;BME280;24099;47.102;15.440;2022-09-12T07:25:59;97144.66;;;15.27;100.00
3668;BME280;24099;47.102;15.440;2022-09-12T07:28:29;97152.91;;;15.44;100.00
3668;BME280;24099;47.102;15.440;2022-09-12T07:30:57;97149.56;;;15.62;100.00
3668;BME280;24099;47.102;15.440;2022-09-12T07:33:27;97143.63;;;15.66;100.00
3668;BME280;24099;47.102;15.440;2022-09-12T07:35:59;97151.47;;;15.79;100.00
3668;BME280;24099;47.102;15.440;2022-09-12T07:38:28;97143.66;;;15.91;100.00
3668;BME280;24099;47.102;15.440;2022-09-12T07:40:57;97146.56;;;15.83;100.00
3668;BME280;24099;47.102;15.440;2022-09-12T07:43:25;97158.41;;;15.80;100.00
3668;BME280;24099;47.102;15.440;2022-09-12T07:45:56;97157.63;;;16.05;100.00
3668;BME280;24099;47.102;15.440;2022-09-12T07:48:23;97165.97;;;16.33;100.00
3668;BME280;24099;47.102;15.440;2022-09-12T07:50:57;97156.09;;;16.40;100.00
3668;BME280;24099;47.102;15.440;2022-09-12T07:53:29;97163.75;;;16.30;100.00
3668;BME280;24099;47.102;15.440;2022-09-12T07:55:57;97154.25;;;16.41;100.00
3668;BME280;24099;47.102;15.440;2022-09-12T07:58:24;97158.75;;;16.59;100.00
3668;BME280;24099;47.102;15.440;2022-09-12T08:00:52;97160.25;;;16.98;100.00
3668;BME280;24099;47.102;15.440;2022-09-12T08:03:19;97162.44;;;17.01;100.00
3668;BME280;24099;47.102;15.440;2022-09-12T08:05:47;97162.53;;;16.94;100.00
3668;BME280;24099;47.102;15.440;2022-09-12T08:08:14;97157.34;;;16.99;100.00
3668;BME280;24099;47.102;15.440;2022-09-12T08:10:43;97158.06;;;17.25;100.00
3668;BME280;24099;47.102;15.440;2022-09-12T08:13:11;97152.91;;;17.41;100.00
3668;BME280;24099;47.102;15.440;2022-09-12T08:15:38;97147.31;;;17.61;100.00
3668;BME280;24099;47.102;15.440;2022-09-12T08:18:05;97151.25;;;17.88;100.00
3668;BME280;24099;47.102;15.440;2022-09-12T08:20:33;97147.47;;;18.31;100.00
3668;BME280;24099;47.102;15.440;2022-09-12T08:23:00;97139.72;;;18.30;100.00
3668;BME280;24099;47.102;15.440;2022-09-12T08:25:28;97139.13;;;18.39;100.00
3668;BME280;24099;47.102;15.440;2022-09-12T08:27:57;97144.69;;;18.49;100.00
3668;BME280;24099;47.102;15.440;2022-09-12T08:30:26;97142.97;;;18.55;100.00
3668;BME280;24099;47.102;15.440;2022-09-12T08:32:54;97145.97;;;18.47;100.00
3668;BME280;24099;47.102;15.440;2022-09-12T08:35:21;97148.66;;;18.35;100.00
3668;BME280;24099;47.102;15.440;2022-09-12T08:37:48;97149.44;;;18.47;100.00
3668;BME280;24099;47.102;15.440;2022-09-12T08:40:17;97147.13;;;18.86;100.00
3668;BME280;24099;47.102;15.440;2022-09-12T08:42:53;97136.53;;;19.03;100.00
3668;BME280;24099;47.102;15.440;2022-09-12T08:45:32;97146.97;;;19.04;100.00
3668;BME280;24099;47.102;15.440;2022-09-12T08:48:04;97134.97;;;19.47;100.00
3668;BME280;24099;47.102;15.440;2022-09-12T08:50:32;97143.53;;;19.32;100.00
3668;BME280;24099;47.102;15.440;2022-09-12T08:53:03;97146.38;;;19.42;100.00
3668;BME280;24099;47.102;15.440;2022-09-12T08:55:35;97141.44;;;19.22;100.00
3668;BME280;24099;47.102;15.440;2022-09-12T08:58:12;97134.31;;;19.11;100.00
3668;BME280;24099;47.102;15.440;2022-09-12T09:00:50;97141.25;;;19.41;100.00
3668;BME280;24099;47.102;15.440;2022-09-12T09:07:06;97132.16;;;19.82;100.00
3668;BME280;24099;47.102;15.440;2022-09-12T09:09:57;97130.84;;;19.68;100.00
3668;BME280;24099;47.102;15.440;2022-09-12T09:12:37;97130.81;;;19.96;100.00
3668;BME280;24099;47.102;15.440;2022-09-12T09:15:22;97128.38;;;19.94;100.00
3668;BME280;24099;47.102;15.440;2022-09-12T09:17:59;97125.94;;;20.10;100.00
3668;BME280;24099;47.102;15.440;2022-09-12T09:20:33;97122.78;;;20.13;100.00
3668;BME280;24099;47.102;15.440;2022-09-12T09:23:07;97132.50;;;20.36;100.00
3668;BME280;24099;47.102;15.440;2022-09-12T09:25:51;97118.88;;;20.04;100.00
3668;BME280;24099;47.102;15.440;2022-09-12T09:28:24;97119.06;;;20.14;100.00
3668;BME280;24099;47.102;15.440;2022-09-12T09:30:53;97122.44;;;20.43;100.00
3668;BME280;24099;47.102;15.440;2022-09-12T09:33:25;97120.69;;;20.15;100.00
3668;BME280;24099;47.102;15.440;2022-09-12T09:36:05;97122.69;;;20.41;100.00
3668;BME280;24099;47.102;15.440;2022-09-12T09:38:46;97117.91;;;20.43;100.00
3668;BME280;24099;47.102;15.440;2022-09-12T09:41:32;97116.94;;;20.49;100.00
3668;BME280;24099;47.102;15.440;2022-09-12T09:44:02;97120.53;;;20.38;100.00
3668;BME280;24099;47.102;15.440;2022-09-12T09:46:30;97114.22;;;20.66;100.00
3668;BME280;24099;47.102;15.440;2022-09-12T09:49:00;97115.03;;;20.67;100.00
3668;BME280;24099;47.102;15.440;2022-09-12T09:51:34;97117.78;;;20.72;100.00
3668;BME280;24099;47.102;15.440;2022-09-12T09:54:18;97109.88;;;20.82;100.00
3668;BME280;24099;47.102;15.440;2022-09-12T09:56:47;97110.88;;;20.76;100.00
3668;BME280;24099;47.102;15.440;2022-09-12T09:59:18;97098.56;;;20.75;100.00
3668;BME280;24099;47.102;15.440;2022-09-12T10:01:48;97100.53;;;20.62;100.00
3668;BME280;24099;47.102;15.440;2022-09-12T10:04:23;97100.69;;;20.94;100.00
3668;BME280;24099;47.102;15.440;2022-09-12T10:06:53;97099.91;;;20.99;100.00
3668;BME280;24099;47.102;15.440;2022-09-12T10:09:25;97085.34;;;21.12;100.00
3668;BME280;24099;47.102;15.440;2022-09-12T10:11:55;97086.44;;;20.89;100.00
3668;BME280;24099;47.102;15.440;2022-09-12T10:14:34;97082.19;;;20.71;100.00
3668;BME280;24099;47.102;15.440;2022-09-12T10:17:28;97076.63;;;20.99;100.00
3668;BME280;24099;47.102;15.440;2022-09-12T10:19:58;97077.66;;;20.93;100.00
3668;BME280;24099;47.102;15.440;2022-09-12T10:22:27;97071.03;;;21.01;100.00
3668;BME280;24099;47.102;15.440;2022-09-12T10:24:58;97065.25;;;21.58;100.00
3668;BME280;24099;47.102;15.440;2022-09-12T10:27:30;97061.88;;;21.73;100.00
3668;BME280;24099;47.102;15.440;2022-09-12T10:30:03;97061.94;;;21.83;100.00
3668;BME280;24099;47.102;15.440;2022-09-12T10:32:35;97057.91;;;21.80;100.00
3668;BME280;24099;47.102;15.440;2022-09-12T10:35:16;97054.66;;;22.05;100.00
3668;BME280;24099;47.102;15.440;2022-09-12T10:37:53;97048.31;;;22.21;100.00
3668;BME280;24099;47.102;15.440;2022-09-12T10:40:23;97048.94;;;22.39;100.00
3668;BME280;24099;47.102;15.440;2022-09-12T10:42:53;97055.13;;;22.39;100.00
3668;BME280;24099;47.102;15.440;2022-09-12T10:45:25;97044.88;;;22.78;94.72
3668;BME280;24099;47.102;15.440;2022-09-12T10:47:55;97041.50;;;23.13;92.06
3668;BME280;24099;47.102;15.440;2022-09-12T10:50:29;97038.53;;;23.05;88.89
3668;BME280;24099;47.102;15.440;2022-09-12T10:53:14;97040.69;;;22.50;83.15
3668;BME280;24099;47.102;15.440;2022-09-12T10:56:05;97040.66;;;22.45;94.42
3668;BME280;24099;47.102;15.440;2022-09-12T10:58:53;97037.00;;;22.66;97.81
3668;BME280;24099;47.102;15.440;2022-09-12T11:01:38;97035.34;;;23.18;96.61
3668;BME280;24099;47.102;15.440;2022-09-12T11:04:25;97038.34;;;24.08;87.98
3668;BME280;24099;47.102;15.440;2022-09-12T11:07:25;97025.97;;;24.27;73.66
3668;BME280;24099;47.102;15.440;2022-09-12T11:10:02;97025.75;;;23.98;85.67
3668;BME280;24099;47.102;15.440;2022-09-12T11:12:39;97024.63;;;24.29;74.16
3668;BME280;24099;47.102;15.440;2022-09-12T11:15:31;97014.09;;;24.23;79.55
3668;BME280;24099;47.102;15.440;2022-09-12T11:18:11;97018.16;;;24.35;76.33
3668;BME280;24099;47.102;15.440;2022-09-12T11:21:18;97014.97;;;23.93;70.88
3668;BME280;24099;47.102;15.440;2022-09-12T11:24:26;97023.75;;;24.54;70.69
3668;BME280;24099;47.102;15.440;2022-09-12T11:27:12;97014.25;;;24.77;71.33
3668;BME280;24099;47.102;15.440;2022-09-12T11:29:48;97011.16;;;24.29;67.17
3668;BME280;24099;47.102;15.440;2022-09-12T11:32:56;97008.25;;;23.80;68.70
3668;BME280;24099;47.102;15.440;2022-09-12T11:35:32;97016.56;;;24.29;70.75
3668;BME280;24099;47.102;15.440;2022-09-12T11:38:31;97012.50;;;24.22;71.56
3668;BME280;24099;47.102;15.440;2022-09-12T11:41:08;97003.75;;;24.76;73.50
3668;BME280;24099;47.102;15.440;2022-09-12T11:43:42;97010.63;;;24.27;68.55
3668;BME280;24099;47.102;15.440;2022-09-12T11:46:18;97013.38;;;23.82;68.19
3668;BME280;24099;47.102;15.440;2022-09-12T11:48:54;97017.94;;;23.81;73.15
3668;BME280;24099;47.102;15.440;2022-09-12T11:51:25;97019.00;;;23.80;71.01
3668;BME280;24099;47.102;15.440;2022-09-12T11:54:03;97021.16;;;23.83;70.37
3668;BME280;24099;47.102;15.440;2022-09-12T11:56:40;97019.47;;;23.21;73.70
3668;BME280;24099;47.102;15.440;2022-09-12T11:59:30;97020.31;;;23.17;80.33
3668;BME280;24099;47.102;15.440;2022-09-12T12:01:58;97019.56;;;23.57;83.68
3668;BME280;24099;47.102;15.440;2022-09-12T12:04:36;97016.44;;;22.82;86.75
3668;BME280;24099;47.102;15.440;2022-09-12T12:07:08;97011.44;;;23.11;85.27
3668;BME280;24099;47.102;15.440;2022-09-12T12:09:46;97004.25;;;23.67;88.37
3668;BME280;24099;47.102;15.440;2022-09-12T12:12:21;97007.69;;;23.27;88.86
3668;BME280;24099;47.102;15.440;2022-09-12T12:14:53;97008.25;;;23.34;77.28
3668;BME280;24099;47.102;15.440;2022-09-12T12:17:23;97007.06;;;22.90;83.88
3668;BME280;24099;47.102;15.440;2022-09-12T12:19:58;97002.28;;;23.07;87.37
3668;BME280;24099;47.102;15.440;2022-09-12T12:22:27;96998.03;;;23.31;80.31
3668;BME280;24099;47.102;15.440;2022-09-12T12:25:20;97003.31;;;22.86;95.10
3668;BME280;24099;47.102;15.440;2022-09-12T12:27:59;96999.88;;;22.43;100.00
3668;BME280;24099;47.102;15.440;2022-09-12T12:31:01;97008.59;;;22.13;100.00
3668;BME280;24099;47.102;15.440;2022-09-12T12:36:42;96998.06;;;23.62;88.19
3668;BME280;24099;47.102;15.440;2022-09-12T12:39:56;96995.66;;;23.55;75.40
3668;BME280;24099;47.102;15.440;2022-09-12T12:43:04;96995.09;;;23.79;76.63
3668;BME280;24099;47.102;15.440;2022-09-12T12:46:08;96980.84;;;23.88;75.09
3668;BME280;24099;47.102;15.440;2022-09-12T12:48:56;96983.19;;;24.30;77.24
3668;BME280;24099;47.102;15.440;2022-09-12T12:51:58;96982.94;;;24.27;69.99
3668;BME280;24099;47.102;15.440;2022-09-12T12:54:49;96984.56;;;24.18;69.49
3668;BME280;24099;47.102;15.440;2022-09-12T12:57:44;96986.44;;;24.27;68.62
3668;BME280;24099;47.102;15.440;2022-09-12T13:00:31;96972.88;;;24.58;66.71
3668;BME280;24099;47.102;15.440;2022-09-12T13:03:08;96972.72;;;24.03;69.68
3668;BME280;24099;47.102;15.440;2022-09-12T13:05:41;96964.66;;;24.14;67.56
3668;BME280;24099;47.102;15.440;2022-09-12T13:08:27;96954.03;;;25.07;68.49
3668;BME280;24099;47.102;15.440;2022-09-12T13:11:00;96964.81;;;24.58;66.08
3668;BME280;24099;47.102;15.440;2022-09-12T13:13:34;96972.44;;;24.30;66.14
3668;BME280;24099;47.102;15.440;2022-09-12T13:16:07;96963.53;;;24.35;64.23
3668;BME280;24099;47.102;15.440;2022-09-12T13:18:41;96959.53;;;24.27;62.43
3668;BME280;24099;47.102;15.440;2022-09-12T13:21:13;96956.13;;;24.71;62.60
3668;BME280;24099;47.102;15.440;2022-09-12T13:23:42;96950.38;;;24.83;67.17
3668;BME280;24099;47.102;15.440;2022-09-12T13:26:11;96956.06;;;25.25;62.12
3668;BME280;24099;47.102;15.440;2022-09-12T13:28:40;96954.31;;;24.56;63.07
3668;BME280;24099;47.102;15.440;2022-09-12T13:31:15;96959.72;;;24.46;64.05
3668;BME280;24099;47.102;15.440;2022-09-12T13:33:45;96953.00;;;24.44;62.85
3668;BME280;24099;47.102;15.440;2022-09-12T13:36:45;96942.75;;;24.51;62.22